Terminal Aerodrome Forecast
Issued by NWS Portland, OR

Home | Current Version | Previous Version | Text Only | Print | Product List | Glossary On
Versions: 1 2 3 4 5 6 7 8 9 10 11 12 13 14 15 16 17 18 19 20 21
000
FTUS46 KPQR 211446 AAA
TAFSLE
TAF AMD
KSLE 211446Z 2115/2212 36007KT P6SM SCT025 BKN050
     FM211600 36006KT P6SM FEW030 SCT050
     FM211800 VRB05KT P6SM FEW030 SCT050
     FM220600 20007KT 4SM -SNRA SCT015 OVC030
     FM220800 28007KT 1/2SM SN BKN008 OVC015=

USA.gov is the U.S. government's official web portal to all federal, state and local government web resources and services.